Time;durP1;ratioP1;P1;durP2;ratioP2;P2;SDS_P1;SDS_P2;PMS_P1;PMS_P2;Temp;Humidity;BMP_temperature;BMP_pressure;BME280_temperature;BME280_humidity;BME280_pressure;Samples;Min_cycle;Max_cycle;Signal;HPM_P1;HPM_P2
2021/10/02 00:37:04;;;;;;;;;7.00;6.50;;;;;16.86;67.53;100846.53;2090675;28;47368;-47
2021/10/02 00:45:41;;;;;;;;;8.00;7.75;;;;;16.82;67.37;100848.50;2088331;28;45683;-46
2021/10/02 00:46:42;;;;;;;;;6.00;6.00;;;;;16.82;67.02;100850.31;2099244;28;47227;-46
2021/10/02 00:47:43;;;;;;;;;6.00;6.00;;;;;16.82;67.16;100851.19;2090949;28;48065;-48
2021/10/02 00:48:44;;;;;;;;;8.00;6.33;;;;;16.82;67.28;100847.63;2090994;28;47200;-46
2021/10/02 00:49:45;;;;;;;;;6.67;6.33;;;;;16.82;67.53;100844.94;2091434;28;48160;-52
2021/10/02 00:50:47;;;;;;;;;8.75;7.25;;;;;16.83;67.49;100850.25;2091836;28;48767;-48
2021/10/02 00:51:47;;;;;;;;;6.25;6.00;;;;;16.83;67.46;100844.00;2091523;28;47333;-46
2021/10/02 00:52:48;;;;;;;;;6.33;6.00;;;;;16.84;67.21;100840.38;2082507;28;47127;-48
2021/10/02 00:53:49;;;;;;;;;12.00;6.67;;;;;16.85;67.42;100842.13;2074460;28;47551;-45
2021/10/02 00:54:50;;;;;;;;;5.00;5.00;;;;;16.85;67.05;100843.00;2074374;28;48111;-46
2021/10/02 00:55:50;;;;;;;;;7.33;7.33;;;;;16.85;67.43;100836.75;2074350;28;48065;-46
2021/10/02 00:56:51;;;;;;;;;7.00;7.00;;;;;16.86;67.28;100842.06;2090817;28;47374;-48
2021/10/02 00:57:52;;;;;;;;;6.75;6.00;;;;;16.87;67.38;100843.78;2091642;28;48360;-47
2021/10/02 00:58:52;;;;;;;;;6.33;6.33;;;;;16.86;67.13;100839.38;2091033;28;47184;-49
2021/10/02 00:59:54;;;;;;;;;7.33;6.33;;;;;16.87;67.40;100834.88;2090973;28;45380;-45
2021/10/02 01:00:56;;;;;;;;;7.50;6.75;;;;;16.87;67.07;100833.06;2099344;27;47565;-44
2021/10/02 01:02:02;;;;;;;;;8.25;8.25;;;;;16.88;67.23;100833.94;2090955;28;47284;-46
2021/10/02 01:03:11;;;;;;;;;7.00;6.00;;;;;16.87;67.26;100827.72;2088471;28;47082;-46
2021/10/02 01:04:49;;;;;;;;;6.00;6.00;;;;;16.87;67.27;100834.88;2098245;27;48488;-50
2021/10/02 01:06:18;;;;;;;;;7.75;7.00;;;;;16.86;67.08;100833.13;2091339;28;47273;-46
2021/10/02 01:07:41;;;;;;;;;6.25;6.25;;;;;16.86;67.15;100836.69;2091391;28;48359;-50
2021/10/02 01:08:54;;;;;;;;;6.50;6.25;;;;;16.86;67.51;100842.06;2084668;28;48126;-50
2021/10/02 01:10:20;;;;;;;;;8.00;7.25;;;;;16.86;67.30;100839.38;2090965;28;47471;-48
2021/10/02 01:11:26;;;;;;;;;7.00;6.50;;;;;16.87;67.39;100840.25;2090098;28;47345;-50
2021/10/02 01:12:57;;;;;;;;;7.00;5.75;;;;;16.87;67.51;100835.75;2090990;28;47407;-49
2021/10/02 01:14:08;;;;;;;;;6.25;6.25;;;;;16.86;67.04;100831.31;2090973;28;48452;-48
2021/10/02 01:15:15;;;;;;;;;11.50;8.25;;;;;16.87;67.55;100833.06;2082384;28;45195;-48
2021/10/02 01:16:22;;;;;;;;;5.50;5.50;;;;;16.88;67.28;100832.13;2076109;28;47119;-48
2021/10/02 01:17:36;;;;;;;;;7.00;7.00;;;;;16.88;67.56;100836.63;2090376;28;46259;-46
2021/10/02 01:18:44;;;;;;;;;7.75;5.75;;;;;16.89;67.38;100844.59;2091462;28;47293;-50
2021/10/02 01:20:06;;;;;;;;;8.00;7.50;;;;;16.90;67.48;100834.75;2099543;28;48311;-47
2021/10/02 01:21:38;;;;;;;;;6.75;6.25;;;;;16.90;67.16;100840.13;2091595;27;47410;-49
2021/10/02 01:22:56;;;;;;;;;8.00;6.75;;;;;16.91;67.18;100844.53;2091385;28;47239;-50
2021/10/02 01:24:02;;;;;;;;;8.75;7.25;;;;;16.92;67.30;100847.16;2091112;28;47137;-47
2021/10/02 01:25:23;;;;;;;;;6.25;6.25;;;;;16.92;67.29;100841.78;2091324;28;46249;-50
2021/10/02 01:26:49;;;;;;;;;7.75;5.75;;;;;16.93;66.97;100840.84;2083156;28;48266;-48
2021/10/02 01:28:11;;;;;;;;;6.00;6.00;;;;;16.94;67.32;100839.91;2082944;28;45260;-47
2021/10/02 01:29:15;;;;;;;;;6.50;6.50;;;;;16.94;66.96;100837.22;2090381;28;46143;-48
2021/10/02 01:30:34;;;;;;;;;8.75;7.50;;;;;16.95;67.10;100835.41;2082521;28;47500;-48
2021/10/02 01:31:42;;;;;;;;;8.00;8.00;;;;;16.96;67.26;100839.81;2090797;28;45407;-49
2021/10/02 01:33:01;;;;;;;;;7.25;7.25;;;;;16.95;67.36;100830.03;2091555;28;47497;-45
2021/10/02 01:34:18;;;;;;;;;7.25;7.25;;;;;16.95;67.27;100835.41;2090409;28;47460;-47
2021/10/02 01:47:13;;;;;;;;;14.60;13.80;;;;;16.99;66.98;100803.00;2092528;28;48345;-45
2021/10/02 01:48:16;;;;;;;;;13.75;13.25;;;;;17.00;67.20;100804.75;2092829;28;47123;-50
2021/10/02 01:49:18;;;;;;;;;10.50;10.50;;;;;17.01;66.97;100801.13;2092447;28;47354;-49
2021/10/02 01:50:24;;;;;;;;;11.25;11.00;;;;;17.01;67.19;100789.53;2098598;28;47300;-47
2021/10/02 01:51:25;;;;;;;;;12.75;11.00;;;;;17.01;67.26;100785.03;2092419;28;48032;-46
2021/10/02 01:52:33;;;;;;;;;10.00;9.00;;;;;17.02;66.85;100784.13;2092698;28;48532;-47
2021/10/02 01:53:37;;;;;;;;;10.75;10.00;;;;;17.03;67.17;100782.31;2092369;28;47293;-46
2021/10/02 01:54:37;;;;;;;;;8.25;6.50;;;;;17.03;66.96;100793.91;2092709;28;47264;-48
2021/10/02 01:55:40;;;;;;;;;8.75;8.25;;;;;17.04;67.24;100786.72;2092328;28;47088;-49
2021/10/02 01:56:42;;;;;;;;;6.00;6.00;;;;;17.04;67.16;100789.41;2087360;28;47365;-50
2021/10/02 01:57:47;;;;;;;;;5.25;5.25;;;;;17.04;67.05;100790.28;2092421;28;47269;-46
2021/10/02 01:58:48;;;;;;;;;6.25;5.50;;;;;17.05;67.08;100792.00;2092250;28;46425;-46
2021/10/02 01:59:51;;;;;;;;;7.00;6.00;;;;;17.05;66.85;100791.16;2091829;28;47357;-48
2021/10/02 02:00:52;;;;;;;;;6.50;5.00;;;;;17.05;66.95;100788.47;2092700;28;47341;-46
2021/10/02 02:01:53;;;;;;;;;6.33;6.00;;;;;17.06;66.86;100787.53;2092080;28;48186;-51
2021/10/02 02:03:00;;;;;;;;;7.75;6.50;;;;;17.06;67.01;100779.47;2092726;28;47802;-48
2021/10/02 02:04:01;;;;;;;;;7.00;6.50;;;;;17.05;67.17;100770.56;2092331;28;48232;-47
2021/10/02 02:05:07;;;;;;;;;5.00;5.00;;;;;17.05;66.79;100769.69;2092190;28;45802;-46
2021/10/02 02:06:09;;;;;;;;;4.25;4.25;;;;;17.04;66.95;100773.31;2091968;28;48008;-46
2021/10/02 02:07:11;;;;;;;;;4.00;4.00;;;;;17.04;66.72;100776.88;2092453;28;47848;-46
2021/10/02 02:08:15;;;;;;;;;5.00;5.00;;;;;17.04;66.94;100771.50;2092413;28;47671;-47
2021/10/02 02:09:16;;;;;;;;;7.00;6.00;;;;;17.05;67.01;100769.69;2092538;28;47373;-47
2021/10/02 02:10:19;;;;;;;;;5.25;5.25;;;;;17.05;67.27;100772.38;2092562;28;48292;-48
2021/10/02 02:11:22;;;;;;;;;5.00;5.00;;;;;17.06;66.91;100776.78;2092348;28;48031;-48
2021/10/02 02:12:30;;;;;;;;;5.75;5.75;;;;;17.06;67.05;100772.31;2084627;28;47621;-48
2021/10/02 02:13:36;;;;;;;;;6.00;6.00;;;;;17.05;66.74;100781.28;2090449;28;46657;-45
2021/10/02 02:14:39;;;;;;;;;4.75;4.75;;;;;17.05;67.06;100767.88;2092473;28;48094;-45
2021/10/02 02:15:42;;;;;;;;;5.50;5.50;;;;;17.05;67.19;100773.25;2092346;28;46392;-48
2021/10/02 02:16:45;;;;;;;;;6.00;6.00;;;;;17.05;66.90;100780.41;2092394;28;47300;-46
2021/10/02 02:17:55;;;;;;;;;2.75;2.75;;;;;17.04;67.00;100776.88;2092252;28;47263;-47
2021/10/02 02:18:57;;;;;;;;;7.00;5.25;;;;;17.05;67.05;100772.38;2093359;28;47462;-48
2021/10/02 02:19:59;;;;;;;;;6.00;5.75;;;;;17.05;66.88;100769.69;2092307;28;47149;-48
2021/10/02 02:21:03;;;;;;;;;3.75;3.75;;;;;17.06;67.03;100768.75;2091812;28;48086;-46
2021/10/02 02:22:04;;;;;;;;;4.00;4.00;;;;;17.05;66.96;100756.28;2091758;28;47450;-46
2021/10/02 02:23:06;;;;;;;;;6.00;6.00;;;;;17.05;66.82;100761.66;2092491;28;47712;-49
2021/10/02 02:24:07;;;;;;;;;6.00;6.00;;;;;17.04;66.54;100763.47;2092500;28;47997;-45
2021/10/02 02:25:07;;;;;;;;;5.00;4.00;;;;;17.04;66.88;100767.97;2091729;28;47205;-49
2021/10/02 02:26:09;;;;;;;;;6.00;4.33;;;;;17.03;66.76;100768.91;2083479;28;47280;-47
2021/10/02 02:27:10;;;;;;;;;5.25;5.25;;;;;17.02;66.99;100762.69;2091786;28;47409;-49
2021/10/02 02:28:11;;;;;;;;;5.00;5.00;;;;;17.03;66.95;100766.22;2092798;28;47997;-47
2021/10/02 02:29:12;;;;;;;;;5.50;4.25;;;;;17.01;66.86;100760.91;2092200;28;46372;-45
2021/10/02 02:30:13;;;;;;;;;5.00;5.00;;;;;17.01;66.82;100752.88;2092023;28;47197;-45
2021/10/02 02:31:14;;;;;;;;;6.33;6.33;;;;;17.01;66.89;100754.69;2091670;28;47477;-46
2021/10/02 02:32:17;;;;;;;;;6.00;6.00;;;;;17.01;66.80;100754.69;2092063;28;48267;-47
2021/10/02 02:33:19;;;;;;;;;7.50;6.25;;;;;17.00;66.94;100760.97;2091586;28;47787;-48
2021/10/02 02:34:20;;;;;;;;;5.00;5.00;;;;;17.00;66.68;100747.59;2092158;28;48118;-47
2021/10/02 02:35:22;;;;;;;;;6.50;6.00;;;;;16.99;67.12;100746.72;2092240;28;47244;-49
2021/10/02 02:36:23;;;;;;;;;6.00;6.00;;;;;16.98;67.09;100746.78;2092630;28;47452;-46
2021/10/02 02:37:23;;;;;;;;;6.67;5.67;;;;;16.98;67.06;100752.16;2092238;28;47419;-46
2021/10/02 02:38:24;;;;;;;;;6.00;4.33;;;;;16.98;67.09;100749.47;2092523;28;45413;-47
2021/10/02 02:39:25;;;;;;;;;7.00;5.33;;;;;16.96;66.92;100744.19;2092230;28;47227;-46
2021/10/02 02:40:26;;;;;;;;;8.50;7.25;;;;;16.96;66.88;100736.16;2092444;28;46856;-50
2021/10/02 02:41:26;;;;;;;;;7.67;6.33;;;;;16.96;67.08;100740.63;2092076;28;47104;-44
2021/10/02 02:42:27;;;;;;;;;5.67;5.33;;;;;16.94;67.21;100735.34;2092352;28;47480;-47
2021/10/02 02:43:34;;;;;;;;;4.33;4.33;;;;;16.93;67.23;100727.38;2092172;28;46276;-49
2021/10/02 02:44:35;;;;;;;;;6.25;6.25;;;;;16.93;66.86;100732.75;2092528;28;47392;-50
2021/10/02 02:45:37;;;;;;;;;5.75;5.25;;;;;16.92;67.17;100734.56;2093660;28;47632;-46
2021/10/02 02:46:39;;;;;;;;;6.75;6.75;;;;;16.91;67.15;100721.22;2092232;28;47924;-48
2021/10/02 02:47:49;;;;;;;;;7.50;6.00;;;;;16.91;67.23;100721.22;2092030;28;46798;-49
2021/10/02 02:49:08;;;;;;;;;6.25;6.25;;;;;16.89;67.02;100720.41;2092135;28;46210;-50
2021/10/02 02:50:29;;;;;;;;;6.75;6.75;;;;;16.87;67.14;100725.84;2090455;28;48336;-46
2021/10/02 02:51:52;;;;;;;;;5.25;4.25;;;;;16.86;67.36;100740.19;2091948;28;47159;-45
2021/10/02 02:53:11;;;;;;;;;5.00;5.00;;;;;16.86;67.17;100750.03;2092289;28;46221;-48
2021/10/02 02:54:37;;;;;;;;;5.25;5.25;;;;;16.85;67.25;100746.50;2092088;28;48033;-47
2021/10/02 02:55:56;;;;;;;;;6.75;6.75;;;;;16.85;67.21;100735.78;2090438;28;47445;-48
2021/10/02 02:57:08;;;;;;;;;6.75;5.50;;;;;16.83;67.13;100721.59;2083146;28;48162;-49
2021/10/02 02:58:10;;;;;;;;;6.75;4.75;;;;;16.83;67.31;100716.22;2084603;28;47241;-48
2021/10/02 02:59:20;;;;;;;;;4.50;4.50;;;;;16.83;67.59;100707.31;2083174;28;48573;-49
2021/10/02 03:00:23;;;;;;;;;7.25;5.25;;;;;16.83;67.05;100710.00;2091812;28;48294;-50
2021/10/02 03:01:25;;;;;;;;;5.75;5.75;;;;;16.82;67.27;100702.91;2091947;28;48230;-49
2021/10/02 03:02:26;;;;;;;;;5.00;5.00;;;;;16.82;67.28;100708.25;2092163;28;48339;-46
2021/10/02 03:03:37;;;;;;;;;6.33;6.00;;;;;16.82;67.73;100700.22;2092029;28;47524;-48
2021/10/02 03:04:39;;;;;;;;;6.00;6.00;;;;;16.80;67.45;100702.97;2092314;28;45311;-45
2021/10/02 03:05:40;;;;;;;;;7.25;6.75;;;;;16.81;67.21;100711.88;2092157;28;48665;-49
2021/10/02 03:06:44;;;;;;;;;5.00;4.00;;;;;16.81;67.28;100711.88;2092240;28;47287;-46
2021/10/02 03:07:59;;;;;;;;;4.50;4.50;;;;;16.83;67.23;100723.41;2091826;28;47212;-46
2021/10/02 03:09:01;;;;;;;;;8.00;8.00;;;;;16.82;67.66;100718.97;2092268;28;47378;-47
2021/10/02 03:10:03;;;;;;;;;7.50;5.75;;;;;16.81;67.42;100709.22;2091586;28;47331;-47
2021/10/02 03:11:05;;;;;;;;;6.50;5.75;;;;;16.81;67.42;100717.25;2091385;28;48200;-46
2021/10/02 03:12:07;;;;;;;;;7.25;7.00;;;;;16.80;67.66;100719.06;2100079;28;45103;-46
2021/10/02 03:13:13;;;;;;;;;5.75;5.75;;;;;16.79;67.40;100709.28;2097947;28;48304;-46
2021/10/02 03:14:18;;;;;;;;;6.00;6.00;;;;;16.79;67.36;100706.59;2092155;28;46179;-46
2021/10/02 03:15:19;;;;;;;;;9.25;8.25;;;;;16.77;67.21;100701.31;2092207;28;45228;-45
2021/10/02 03:16:23;;;;;;;;;6.75;5.50;;;;;16.78;67.22;100694.16;2091450;28;47957;-45
2021/10/02 03:17:24;;;;;;;;;6.25;6.25;;;;;16.76;67.18;100688.84;2091263;28;47378;-48
2021/10/02 03:18:26;;;;;;;;;5.50;5.50;;;;;16.77;67.30;100687.06;2092206;28;47269;-45
2021/10/02 03:19:29;;;;;;;;;6.00;6.00;;;;;16.77;67.37;100681.69;2098979;28;47991;-44
2021/10/02 03:20:32;;;;;;;;;5.50;5.50;;;;;16.75;67.48;100686.22;2098066;27;47367;-46
2021/10/02 03:21:34;;;;;;;;;5.25;5.25;;;;;16.74;67.59;100682.69;2091855;28;48317;-46
2021/10/02 03:22:36;;;;;;;;;6.00;6.00;;;;;16.74;67.92;100695.22;2092100;28;47364;-45
2021/10/02 03:23:38;;;;;;;;;4.00;4.00;;;;;16.72;67.62;100700.66;2091940;28;47312;-45
2021/10/02 03:24:39;;;;;;;;;5.75;5.75;;;;;16.73;67.47;100699.72;2092256;28;47121;-47
2021/10/02 03:25:40;;;;;;;;;7.00;5.50;;;;;16.73;67.51;100701.50;2091737;28;48304;-45
2021/10/02 03:26:42;;;;;;;;;6.25;6.00;;;;;16.72;67.46;100700.66;2092232;28;48266;-46
2021/10/02 03:27:43;;;;;;;;;5.75;5.75;;;;;16.72;67.70;100700.66;2092012;28;47377;-46
2021/10/02 03:28:44;;;;;;;;;8.50;7.00;;;;;16.73;67.79;100699.72;2092299;28;48202;-45
2021/10/02 03:29:47;;;;;;;;;8.00;7.50;;;;;16.72;67.94;100703.34;2091360;28;47463;-45
2021/10/02 03:30:49;;;;;;;;;5.50;5.00;;;;;16.72;67.67;100706.00;2091494;28;47454;-47
2021/10/02 03:31:50;;;;;;;;;6.00;6.00;;;;;16.72;67.48;100703.34;2091015;28;47180;-46
2021/10/02 03:32:52;;;;;;;;;9.25;8.25;;;;;16.72;67.94;100699.78;2091753;28;47276;-45
2021/10/02 03:33:53;;;;;;;;;7.00;6.00;;;;;16.71;67.38;100690.88;2091684;28;48231;-45
2021/10/02 03:34:54;;;;;;;;;8.00;7.00;;;;;16.70;67.99;100688.28;2092067;28;48301;-47
2021/10/02 03:35:55;;;;;;;;;8.25;6.75;;;;;16.69;67.33;100682.03;2091842;28;47310;-44
2021/10/02 03:36:56;;;;;;;;;8.67;7.67;;;;;16.68;67.84;100677.63;2092175;28;48319;-48
2021/10/02 03:37:56;;;;;;;;;8.00;8.00;;;;;16.68;67.84;100679.44;2091776;28;47048;-45
2021/10/02 03:38:57;;;;;;;;;9.33;8.00;;;;;16.67;67.59;100669.63;2092129;28;46173;-46
2021/10/02 03:39:58;;;;;;;;;8.67;8.00;;;;;16.67;67.54;100675.91;2091793;28;47203;-45
2021/10/02 03:41:00;;;;;;;;;10.00;10.00;;;;;16.67;67.99;100673.22;2092135;28;45235;-47
2021/10/02 03:42:14;;;;;;;;;8.50;7.50;;;;;16.67;67.65;100669.63;2091707;28;47380;-47
2021/10/02 03:43:14;;;;;;;;;8.00;7.25;;;;;16.66;67.67;100666.09;2091709;28;46982;-46
2021/10/02 03:44:15;;;;;;;;;8.67;8.67;;;;;16.66;67.98;100666.09;2091332;28;47146;-49
2021/10/02 03:45:17;;;;;;;;;6.33;6.33;;;;;16.65;67.51;100659.00;2091039;28;46389;-46
2021/10/02 03:46:18;;;;;;;;;6.75;6.75;;;;;16.65;67.70;100652.75;2091762;28;47319;-47
2021/10/02 03:47:20;;;;;;;;;7.00;7.00;;;;;16.64;67.83;100651.91;2091154;28;47816;-46
2021/10/02 03:48:21;;;;;;;;;8.25;8.00;;;;;16.64;68.04;100653.69;2091386;28;47100;-47
2021/10/02 03:49:21;;;;;;;;;8.00;7.00;;;;;16.62;67.96;100651.06;2090996;28;47343;-47
2021/10/02 03:50:22;;;;;;;;;7.33;7.00;;;;;16.62;67.65;100651.06;2092393;28;47128;-47
2021/10/02 03:51:22;;;;;;;;;9.33;8.33;;;;;16.63;67.98;100655.50;2091828;28;48161;-49
2021/10/02 03:52:23;;;;;;;;;8.00;6.33;;;;;16.64;67.87;100656.34;2091800;28;48245;-46
2021/10/02 03:53:27;;;;;;;;;6.33;6.33;;;;;16.63;67.98;100655.50;2091728;28;47133;-46
2021/10/02 03:54:28;;;;;;;;;7.25;7.25;;;;;16.66;67.73;100649.13;2091859;28;48473;-44
2021/10/02 03:55:28;;;;;;;;;8.00;6.67;;;;;16.65;67.77;100644.72;2091773;28;45716;-48
2021/10/02 03:56:31;;;;;;;;;7.00;6.00;;;;;16.66;67.70;100646.47;2091816;28;47274;-48
2021/10/02 03:57:31;;;;;;;;;6.00;6.00;;;;;16.67;67.62;100642.84;2091821;28;47219;-45
2021/10/02 03:58:32;;;;;;;;;7.67;7.67;;;;;16.66;67.74;100641.09;2091296;28;46124;-49
2021/10/02 03:59:33;;;;;;;;;8.00;8.00;;;;;16.66;67.94;100643.78;2082883;28;48095;-47
2021/10/02 04:00:33;;;;;;;;;8.00;8.00;;;;;16.67;67.71;100643.75;2082940;28;47295;-50
2021/10/02 04:01:34;;;;;;;;;8.00;8.00;;;;;16.67;67.76;100651.78;2090812;28;47279;-48
2021/10/02 04:02:34;;;;;;;;;9.33;8.33;;;;;16.67;67.70;100651.78;2091957;28;47262;-47
2021/10/02 04:03:35;;;;;;;;;9.67;8.67;;;;;16.68;68.05;100652.66;2091177;28;47044;-48
2021/10/02 04:04:35;;;;;;;;;8.67;8.67;;;;;16.68;67.74;100664.22;2091102;28;48488;-45
2021/10/02 04:05:36;;;;;;;;;7.67;7.67;;;;;16.69;67.80;100662.41;2091240;28;46812;-45
2021/10/02 04:06:36;;;;;;;;;8.67;7.00;;;;;16.69;67.81;100663.28;2091180;28;48429;-50
2021/10/02 04:07:37;;;;;;;;;8.33;8.33;;;;;16.71;67.68;100661.41;2091076;28;46668;-47
2021/10/02 04:08:37;;;;;;;;;10.67;10.00;;;;;16.71;67.98;100664.06;2091764;28;48085;-47
2021/10/02 04:09:38;;;;;;;;;9.33;9.33;;;;;16.72;67.99;100663.13;2091560;28;46963;-47
2021/10/02 04:10:38;;;;;;;;;10.33;10.33;;;;;16.73;67.60;100651.47;2092055;28;47293;-47
2021/10/02 04:11:38;;;;;;;;;9.33;9.33;;;;;16.74;67.74;100649.66;2091459;28;48149;-49
2021/10/02 04:12:39;;;;;;;;;8.67;7.67;;;;;16.74;67.95;100638.94;2092010;28;48119;-47
2021/10/02 04:13:40;;;;;;;;;8.67;8.67;;;;;16.75;67.96;100638.84;2088214;28;47559;-46
2021/10/02 04:14:40;;;;;;;;;7.67;7.67;;;;;16.76;67.95;100629.00;2089062;28;48244;-45
2021/10/02 04:15:40;;;;;;;;;8.00;8.00;;;;;16.76;67.82;100629.00;2091716;28;47078;-45
2021/10/02 04:16:41;;;;;;;;;10.33;10.33;;;;;16.78;67.50;100629.81;2091713;28;46294;-46
2021/10/02 04:17:41;;;;;;;;;10.33;8.67;;;;;16.80;67.78;100637.78;2090935;28;47109;-46
2021/10/02 04:18:42;;;;;;;;;9.67;9.00;;;;;16.79;67.92;100633.38;2091962;28;48013;-46
2021/10/02 04:19:43;;;;;;;;;10.00;9.00;;;;;16.80;67.86;100637.78;2099985;28;46247;-49
2021/10/02 04:20:43;;;;;;;;;11.00;11.00;;;;;16.80;68.24;100646.69;2092299;27;45084;-48
2021/10/02 04:21:44;;;;;;;;;12.00;10.00;;;;;16.81;67.93;100645.75;2091432;28;46503;-46
2021/10/02 04:22:44;;;;;;;;;10.33;10.33;;;;;16.81;67.98;100643.06;2091217;28;47243;-46
2021/10/02 04:23:45;;;;;;;;;10.00;10.00;;;;;16.82;68.09;100650.16;2091016;28;46081;-44
2021/10/02 04:24:45;;;;;;;;;8.00;8.00;;;;;16.83;67.92;100653.72;2091375;28;45280;-47
2021/10/02 04:25:46;;;;;;;;;12.33;10.00;;;;;16.84;67.73;100642.03;2091005;28;47137;-47
2021/10/02 04:26:46;;;;;;;;;11.33;10.33;;;;;16.85;67.99;100649.13;2091810;28;46980;-47
2021/10/02 04:27:47;;;;;;;;;11.33;11.33;;;;;16.85;68.03;100650.00;2091768;28;48107;-45
2021/10/02 04:28:49;;;;;;;;;10.67;10.67;;;;;16.87;68.03;100650.78;2091375;28;46152;-47
2021/10/02 04:29:49;;;;;;;;;9.00;9.00;;;;;16.87;67.77;100642.75;2082713;28;48382;-47
2021/10/02 04:30:50;;;;;;;;;10.67;10.67;;;;;16.87;68.27;100648.13;2091404;28;47196;-47
2021/10/02 04:31:51;;;;;;;;;9.67;9.67;;;;;16.88;67.80;100641.81;2091258;28;48112;-45
2021/10/02 04:32:51;;;;;;;;;9.67;9.67;;;;;16.89;68.03;100640.00;2091887;28;47381;-47
2021/10/02 04:33:51;;;;;;;;;9.00;9.00;;;;;16.91;67.91;100643.50;2091639;28;47056;-46
2021/10/02 04:34:52;;;;;;;;;9.00;9.00;;;;;16.91;67.83;100641.69;2091055;28;47321;-48
2021/10/02 04:35:52;;;;;;;;;11.33;11.33;;;;;16.92;67.97;100643.41;2090829;28;47373;-46
2021/10/02 04:36:53;;;;;;;;;8.00;8.00;;;;;16.93;68.05;100646.97;2091790;28;48159;-45
2021/10/02 04:37:53;;;;;;;;;11.00;11.00;;;;;16.94;67.83;100651.38;2091442;28;45896;-45
2021/10/02 04:38:54;;;;;;;;;10.00;10.00;;;;;16.93;68.23;100637.13;2083410;28;47387;-46
2021/10/02 04:39:54;;;;;;;;;12.67;10.00;;;;;16.94;68.01;100628.13;2089289;28;46607;-46
2021/10/02 04:40:55;;;;;;;;;14.00;13.00;;;;;16.94;67.92;100641.53;2090903;28;48222;-46
2021/10/02 04:41:55;;;;;;;;;10.00;9.33;;;;;16.95;67.79;100645.06;2082612;28;47414;-44
2021/10/02 04:42:56;;;;;;;;;11.00;11.00;;;;;16.97;68.07;100645.88;2087613;28;46251;-47
2021/10/02 04:43:56;;;;;;;;;13.33;10.33;;;;;16.97;67.94;100643.19;2091543;28;47551;-45
2021/10/02 04:44:57;;;;;;;;;11.00;10.67;;;;;16.97;68.28;100654.78;2090949;28;48037;-44
2021/10/02 04:45:57;;;;;;;;;11.00;10.00;;;;;16.98;67.77;100655.63;2091946;28;48353;-46
2021/10/02 04:46:58;;;;;;;;;13.00;11.00;;;;;16.99;67.89;100652.00;2091451;28;48258;-50
2021/10/02 04:47:59;;;;;;;;;9.75;9.75;;;;;16.98;67.90;100656.50;2091464;28;48364;-46
2021/10/02 04:49:00;;;;;;;;;9.00;8.67;;;;;16.99;67.95;100638.59;2091520;28;47169;-47
2021/10/02 04:50:00;;;;;;;;;10.67;9.67;;;;;16.99;68.02;100633.25;2092388;28;45652;-45
2021/10/02 04:51:01;;;;;;;;;13.00;12.00;;;;;16.99;68.08;100622.53;2091492;28;48355;-46
2021/10/02 04:52:01;;;;;;;;;9.00;9.00;;;;;16.99;67.68;100618.03;2091518;28;47194;-48
2021/10/02 04:53:02;;;;;;;;;11.33;10.67;;;;;17.00;67.92;100616.22;2090857;28;47111;-45
2021/10/02 04:54:03;;;;;;;;;10.00;10.00;;;;;17.00;68.20;100622.44;2090795;28;47558;-46
2021/10/02 04:55:04;;;;;;;;;9.00;9.00;;;;;17.01;68.33;100621.50;2091461;28;47122;-45
2021/10/02 04:56:08;;;;;;;;;13.00;11.50;;;;;17.01;68.10;100626.00;2090934;28;48189;-48
2021/10/02 04:57:08;;;;;;;;;12.75;11.75;;;;;17.00;67.99;100630.47;2090479;28;48704;-48
2021/10/02 04:58:09;;;;;;;;;13.00;10.33;;;;;16.99;67.82;100636.78;2091715;28;47097;-48
2021/10/02 04:59:09;;;;;;;;;8.00;7.67;;;;;16.99;67.90;100644.84;2090627;28;48264;-47
2021/10/02 05:00:10;;;;;;;;;9.67;9.67;;;;;16.99;67.88;100639.47;2081333;28;48313;-46
2021/10/02 05:01:11;;;;;;;;;8.67;8.67;;;;;16.99;68.09;100627.88;2087036;28;48417;-45
2021/10/02 05:02:11;;;;;;;;;9.00;8.00;;;;;17.00;67.67;100629.63;2091203;28;48273;-49
2021/10/02 05:03:12;;;;;;;;;11.00;10.67;;;;;17.00;67.97;100633.16;2090104;28;47360;-46
2021/10/02 05:04:12;;;;;;;;;10.00;10.00;;;;;17.00;67.84;100637.66;2090710;28;47500;-50
2021/10/02 05:05:13;;;;;;;;;9.67;8.67;;;;;17.01;67.94;100642.94;2090841;28;45391;-46
2021/10/02 05:06:13;;;;;;;;;9.67;9.67;;;;;17.00;68.00;100638.53;2090821;28;48376;-50
2021/10/02 05:07:14;;;;;;;;;10.33;10.33;;;;;17.01;68.40;100640.25;2090463;28;46210;-47
2021/10/02 05:08:14;;;;;;;;;10.33;10.33;;;;;17.02;68.04;100641.13;2091350;28;47139;-46
2021/10/02 05:09:16;;;;;;;;;7.33;7.33;;;;;17.01;68.36;100642.94;2091337;28;46079;-50
2021/10/02 05:10:17;;;;;;;;;9.75;8.75;;;;;17.02;68.10;100649.16;2091297;28;48630;-49
2021/10/02 05:11:17;;;;;;;;;9.00;9.00;;;;;17.02;67.95;100650.06;2091272;28;48185;-46
2021/10/02 05:12:18;;;;;;;;;9.33;8.67;;;;;17.02;67.89;100652.75;2090598;28;47242;-48
2021/10/02 05:13:18;;;;;;;;;9.00;9.00;;;;;17.02;67.95;100650.06;2090711;28;45180;-46
2021/10/02 05:14:18;;;;;;;;;8.33;8.33;;;;;17.02;68.33;100658.13;2091284;28;46833;-49
2021/10/02 05:15:19;;;;;;;;;8.33;8.00;;;;;17.03;68.04;100658.97;2090612;28;47067;-47
2021/10/02 05:16:19;;;;;;;;;9.00;8.33;;;;;17.02;67.92;100652.75;2082024;28;46412;-50
2021/10/02 05:17:20;;;;;;;;;8.33;8.33;;;;;17.03;68.09;100651.81;2090487;28;47935;-48
2021/10/02 05:18:20;;;;;;;;;12.00;10.00;;;;;17.04;68.26;100647.31;2091236;28;48266;-48
2021/10/02 05:19:21;;;;;;;;;7.00;7.00;;;;;17.03;68.14;100646.44;2097449;28;45300;-47
2021/10/02 05:20:21;;;;;;;;;9.00;8.67;;;;;17.04;68.27;100639.28;2091977;27;47386;-47
2021/10/02 05:21:22;;;;;;;;;7.00;6.00;;;;;17.03;67.91;100641.09;2090443;28;47449;-50
2021/10/02 05:22:22;;;;;;;;;9.00;9.00;;;;;17.02;68.08;100650.06;2082272;28;47440;-46
2021/10/02 05:23:24;;;;;;;;;9.33;9.33;;;;;17.04;68.28;100639.28;2090467;28;47339;-51
2021/10/02 05:24:24;;;;;;;;;7.25;7.00;;;;;17.04;68.15;100637.44;2091325;28;47526;-45
2021/10/02 05:25:25;;;;;;;;;8.33;8.33;;;;;17.05;68.28;100633.81;2090596;28;47331;-46
2021/10/02 05:26:25;;;;;;;;;8.00;8.00;;;;;17.05;67.75;100622.22;2082299;28;47156;-45
2021/10/02 05:27:26;;;;;;;;;9.00;9.00;;;;;17.04;68.25;100621.38;2090516;28;46222;-49
2021/10/02 05:28:26;;;;;;;;;11.00;7.67;;;;;17.06;68.16;100615.94;2091258;28;47277;-48
2021/10/02 05:29:27;;;;;;;;;8.00;8.00;;;;;17.05;68.19;100616.88;2091126;28;47227;-47
2021/10/02 05:30:27;;;;;;;;;9.00;9.00;;;;;17.06;68.00;100623.97;2091210;28;47907;-45
2021/10/02 05:31:28;;;;;;;;;7.00;7.00;;;;;17.06;67.82;100621.28;2090404;28;47230;-48
2021/10/02 05:32:28;;;;;;;;;8.00;8.00;;;;;17.06;68.20;100624.84;2090580;28;48509;-45
2021/10/02 05:33:29;;;;;;;;;6.33;6.00;;;;;17.08;68.30;100615.84;2091266;28;47088;-49
2021/10/02 05:34:29;;;;;;;;;7.33;7.00;;;;;17.06;67.72;100610.56;2091021;28;46400;-45
2021/10/02 05:35:33;;;;;;;;;10.00;7.00;;;;;17.05;67.92;100604.34;2091400;28;47363;-51
2021/10/02 05:36:34;;;;;;;;;10.50;8.50;;;;;17.05;68.08;100607.00;2091162;28;47313;-49
2021/10/02 05:37:35;;;;;;;;;7.67;6.67;;;;;17.05;67.92;100604.34;2087325;28;47328;-50
2021/10/02 05:38:35;;;;;;;;;7.50;7.00;;;;;17.04;67.90;100599.91;2087616;28;48394;-49
2021/10/02 05:39:36;;;;;;;;;8.33;8.33;;;;;17.05;68.19;100603.47;2090992;28;47676;-49
2021/10/02 05:40:36;;;;;;;;;7.00;7.00;;;;;17.04;68.01;100596.38;2090579;28;47244;-48
2021/10/02 05:41:37;;;;;;;;;8.33;8.33;;;;;17.03;68.20;100603.53;2082202;28;47159;-46
2021/10/02 05:42:38;;;;;;;;;7.50;7.50;;;;;17.03;67.72;100597.31;2090620;28;47047;-49
2021/10/02 05:43:38;;;;;;;;;7.33;7.33;;;;;17.02;68.20;100595.56;2091131;28;48383;-46
2021/10/02 05:44:39;;;;;;;;;10.00;8.00;;;;;17.01;67.91;100589.31;2091390;28;47169;-49
2021/10/02 05:45:39;;;;;;;;;7.00;7.00;;;;;17.02;67.89;100592.88;2090864;28;45370;-48
2021/10/02 05:46:40;;;;;;;;;7.00;7.00;;;;;17.01;68.37;100594.69;2091305;28;46268;-51
2021/10/02 05:47:40;;;;;;;;;10.00;7.67;;;;;17.02;68.22;100592.88;2090862;28;47069;-48
2021/10/02 05:48:41;;;;;;;;;9.00;7.00;;;;;17.01;67.84;100580.41;2091373;28;47230;-49
2021/10/02 05:49:41;;;;;;;;;6.33;6.33;;;;;17.02;68.13;100582.16;2087665;28;47307;-45